Time;durP1;ratioP1;P1;durP2;ratioP2;P2;SDS_P1;SDS_P2;PMS_P1;PMS_P2;Temp;Humidity;BMP_temperature;BMP_pressure;BME280_temperature;BME280_humidity;BME280_pressure;Samples;Min_cycle;Max_cycle;Signal;HPM_P1;HPM_P2
2023/11/02 00:00:54;;;;;;;35.50;33.07;;;10.60;90.20;;;;;;5038607;28;20183;-90
2023/11/02 00:03:32;;;;;;;36.07;33.57;;;10.60;90.30;;;;;;5042619;28;20599;-90
2023/11/02 00:05:57;;;;;;;34.87;32.20;;;10.50;90.40;;;;;;5056188;28;20198;-89
2023/11/02 00:08:31;;;;;;;33.73;31.60;;;10.40;90.50;;;;;;5038187;28;20180;-89
2023/11/02 00:10:57;;;;;;;34.20;31.93;;;10.40;90.60;;;;;;5038281;28;20287;-90
2023/11/02 00:13:26;;;;;;;35.50;32.60;;;10.30;90.70;;;;;;5056000;28;20200;-90
2023/11/02 00:15:53;;;;;;;32.67;30.77;;;10.30;90.80;;;;;;5038044;28;20679;-90
2023/11/02 00:18:19;;;;;;;33.30;31.00;;;10.30;90.90;;;;;;5038222;28;20302;-90
2023/11/02 00:20:46;;;;;;;34.80;32.50;;;10.30;91.00;;;;;;5054963;28;20176;-90
2023/11/02 00:23:13;;;;;;;33.37;31.07;;;10.30;90.90;;;;;;5037986;28;20177;-90
2023/11/02 00:25:52;;;;;;;34.87;32.47;;;10.30;90.90;;;;;;5037595;28;20202;-91
2023/11/02 00:28:18;;;;;;;33.10;30.93;;;10.30;91.00;;;;;;5037937;28;20182;-89
2023/11/02 00:30:48;;;;;;;33.53;30.87;;;10.30;91.10;;;;;;5037713;28;20270;-88
2023/11/02 00:33:14;;;;;;;33.20;30.90;;;10.30;91.10;;;;;;5055727;28;20191;-88
2023/11/02 00:35:49;;;;;;;33.13;30.50;;;10.20;91.10;;;;;;5055247;28;20188;-88
2023/11/02 00:38:26;;;;;;;34.20;31.80;;;10.20;91.10;;;;;;5037624;28;20229;-89
2023/11/02 00:40:53;;;;;;;32.40;30.40;;;10.20;91.10;;;;;;5037575;28;20391;-88
2023/11/02 00:43:19;;;;;;;32.47;30.27;;;10.20;91.20;;;;;;5037494;28;20183;-90
2023/11/02 00:45:45;;;;;;;33.60;31.30;;;10.10;91.10;;;;;;5055306;28;20207;-88
2023/11/02 00:48:23;;;;;;;35.97;33.77;;;10.20;91.20;;;;;;5037313;28;20179;-90
2023/11/02 00:51:11;;;;;;;34.63;32.23;;;10.10;91.10;;;;;;5055133;28;20280;-90
2023/11/02 00:53:42;;;;;;;33.27;31.07;;;10.10;91.20;;;;;;5037681;28;20616;-90
2023/11/02 00:56:08;;;;;;;33.30;31.03;;;10.10;91.10;;;;;;5055085;28;20194;-89
2023/11/02 00:58:34;;;;;;;32.90;30.73;;;10.10;91.10;;;;;;5054893;28;20172;-90
2023/11/02 01:01:12;;;;;;;32.97;30.73;;;10.10;91.00;;;;;;5037233;28;20203;-89
2023/11/02 01:03:38;;;;;;;32.90;30.30;;;10.00;91.10;;;;;;5037519;28;20259;-89
2023/11/02 01:06:11;;;;;;;33.10;30.77;;;10.00;91.00;;;;;;5037343;28;20199;-89
2023/11/02 01:08:37;;;;;;;33.00;30.53;;;10.00;91.00;;;;;;5055032;28;20238;-90
2023/11/02 01:11:03;;;;;;;33.13;30.73;;;10.00;91.00;;;;;;5037055;28;20176;-89
2023/11/02 01:13:29;;;;;;;33.50;30.63;;;9.90;91.10;;;;;;5036759;28;20232;-88
2023/11/02 01:16:06;;;;;;;33.87;31.87;;;9.90;91.10;;;;;;5054755;28;20192;-89
2023/11/02 01:18:31;;;;;;;34.87;32.47;;;9.90;91.00;;;;;;5036976;28;20171;-90
2023/11/02 01:21:05;;;;;;;34.17;31.30;;;9.90;91.10;;;;;;5036876;28;20172;-89
2023/11/02 01:23:32;;;;;;;33.57;31.13;;;9.90;91.10;;;;;;5036700;28;20630;-90
2023/11/02 01:25:58;;;;;;;33.10;30.77;;;9.90;91.10;;;;;;5036559;28;20263;-91
2023/11/02 01:28:50;;;;;;;35.17;32.87;;;9.80;91.00;;;;;;5036868;28;20218;-88
2023/11/02 01:31:18;;;;;;;35.57;33.17;;;9.80;91.00;;;;;;5036558;28;20184;-88
2023/11/02 01:33:53;;;;;;;33.07;30.33;;;9.80;91.10;;;;;;5036525;28;20290;-89
2023/11/02 01:36:26;;;;;;;33.77;31.53;;;9.80;91.20;;;;;;5036456;28;20195;-90
2023/11/02 01:39:00;;;;;;;34.20;31.93;;;9.80;91.20;;;;;;5058117;28;20152;-91
2023/11/02 01:41:49;;;;;;;57.73;54.07;;;9.80;91.20;;;;;;5054580;28;20183;-91
2023/11/02 01:44:41;;;;;;;60.97;57.13;;;9.70;91.10;;;;;;5036618;28;20628;-90
2023/11/02 01:47:29;;;;;;;56.10;52.17;;;9.70;91.10;;;;;;5036320;28;20171;-91
2023/11/02 01:50:27;;;;;;;33.93;31.43;;;9.60;91.20;;;;;;5036442;28;20172;-91
2023/11/02 01:52:57;;;;;;;34.83;32.57;;;9.60;91.20;;;;;;5036030;28;20172;-91
2023/11/02 01:55:46;;;;;;;57.87;54.23;;;9.50;91.30;;;;;;5035927;28;20188;-91
2023/11/02 01:58:27;;;;;;;56.73;53.03;;;9.50;91.30;;;;;;5036232;28;20168;-91
2023/11/02 02:01:17;;;;;;;35.13;32.80;;;9.40;91.40;;;;;;5053958;28;20243;-90
2023/11/02 02:04:25;;;;;;;34.13;31.83;;;9.30;91.40;;;;;;5036073;28;20179;-90
2023/11/02 02:07:18;;;;;;;56.73;53.13;;;9.30;91.50;;;;;;5025318;28;20203;-90
2023/11/02 02:10:13;;;;;;;58.17;54.13;;;9.30;91.50;;;;;;5054034;28;20194;-91
2023/11/02 02:13:04;;;;;;;36.77;34.13;;;9.30;91.60;;;;;;5053746;28;20539;-91
2023/11/02 02:16:01;;;;;;;35.37;33.17;;;9.40;91.70;;;;;;5035688;28;20196;-91
2023/11/02 02:18:46;;;;;;;58.07;54.23;;;9.30;91.70;;;;;;5035759;28;20191;-90
2023/11/02 02:21:40;;;;;;;45.70;42.80;;;9.30;91.70;;;;;;5035827;28;20160;-90
2023/11/02 02:24:37;;;;;;;34.45;31.85;;;9.30;91.90;;;;;;5027580;28;20195;-90
2023/11/02 02:27:28;;;;;;;62.87;58.97;;;9.40;91.90;;;;;;5035664;28;20158;-90
2023/11/02 02:30:28;;;;;;;63.77;59.77;;;9.30;91.90;;;;;;5035750;28;20225;-90
2023/11/02 02:33:31;;;;;;;37.90;35.63;;;9.30;91.90;;;;;;5054226;28;20153;-90
2023/11/02 02:36:05;;;;;;;38.43;35.57;;;9.30;91.90;;;;;;5022436;28;20243;-91
2023/11/02 02:38:52;;;;;;;65.60;61.40;;;9.30;91.90;;;;;;5035480;28;20168;-90
2023/11/02 02:41:21;;;;;;;63.87;59.70;;;9.30;92.00;;;;;;5035710;28;20148;-90
2023/11/02 02:43:52;;;;;;;37.37;34.97;;;9.30;92.00;;;;;;5052870;28;20199;-90
2023/11/02 02:46:21;;;;;;;40.53;37.50;;;9.30;92.00;;;;;;5035863;28;20200;-90
2023/11/02 02:48:47;;;;;;;39.17;36.57;;;9.30;92.00;;;;;;5035393;28;20188;-90
2023/11/02 02:51:15;;;;;;;62.65;58.65;;;9.30;92.00;;;;;;5035369;28;20551;-90
2023/11/02 02:53:42;;;;;;;67.53;62.97;;;9.30;92.00;;;;;;5035156;28;25076;-90
2023/11/02 02:56:11;;;;;;;42.57;39.90;;;9.30;91.90;;;;;;5036253;28;20703;-90
2023/11/02 02:58:51;;;;;;;41.63;38.70;;;9.30;92.00;;;;;;5035232;28;20643;-90
2023/11/02 03:01:19;;;;;;;67.63;63.53;;;9.30;92.00;;;;;;5035551;28;20182;-91
2023/11/02 03:03:46;;;;;;;67.23;62.83;;;9.30;92.00;;;;;;5035368;28;20172;-90
2023/11/02 03:06:11;;;;;;;41.20;38.60;;;9.20;92.00;;;;;;5035525;28;20199;-90
2023/11/02 03:08:40;;;;;;;40.63;38.03;;;9.20;91.90;;;;;;5052868;28;20175;-91
2023/11/02 03:11:09;;;;;;;41.83;39.20;;;9.30;92.00;;;;;;5052986;28;20535;-90
2023/11/02 03:13:37;;;;;;;67.50;63.20;;;9.20;91.90;;;;;;5035257;28;20200;-90
2023/11/02 03:16:08;;;;;;;70.45;65.90;;;9.30;91.90;;;;;;5035005;28;20675;-90
2023/11/02 03:18:38;;;;;;;41.27;38.80;;;9.30;91.80;;;;;;5035340;28;20160;-90
2023/11/02 03:21:04;;;;;;;38.00;35.03;;;9.20;91.70;;;;;;5035131;28;20169;-90
2023/11/02 03:23:47;;;;;;;38.53;36.13;;;9.20;91.70;;;;;;5035752;28;20180;-90
2023/11/02 03:26:44;;;;;;;64.67;60.60;;;9.30;91.80;;;;;;5034827;28;20265;-90
2023/11/02 03:29:48;;;;;;;69.13;64.57;;;9.20;91.60;;;;;;5035626;28;20251;-90
2023/11/02 03:32:20;;;;;;;36.55;34.25;;;9.30;91.70;;;;;;5052779;28;20674;-91
2023/11/02 03:35:09;;;;;;;39.27;36.37;;;9.20;91.60;;;;;;5052592;28;20208;-90
2023/11/02 03:37:40;;;;;;;66.47;62.37;;;9.20;91.50;;;;;;5035072;28;20259;-90
2023/11/02 03:40:21;;;;;;;65.07;61.00;;;9.20;91.50;;;;;;5052774;28;20218;-91
2023/11/02 03:43:12;;;;;;;38.60;35.80;;;9.10;91.50;;;;;;5034729;28;20164;-90
2023/11/02 03:46:03;;;;;;;38.23;35.40;;;9.20;91.60;;;;;;5034821;28;20287;-91
2023/11/02 03:48:31;;;;;;;37.47;35.17;;;9.10;91.60;;;;;;5034860;28;20524;-90
2023/11/02 03:51:18;;;;;;;40.73;37.83;;;9.10;91.50;;;;;;5034672;28;20195;-90
2023/11/02 03:54:12;;;;;;;40.43;37.50;;;9.10;91.40;;;;;;5035353;28;20200;-90
2023/11/02 03:56:59;;;;;;;39.33;36.73;;;9.10;91.40;;;;;;5037129;28;20192;-90
2023/11/02 04:00:03;;;;;;;37.23;34.83;;;9.10;91.40;;;;;;5056307;28;20592;-90
2023/11/02 04:02:31;;;;;;;38.37;35.17;;;9.10;91.40;;;;;;5015361;28;20186;-91
2023/11/02 04:05:17;;;;;;;37.87;35.47;;;9.00;91.40;;;;;;5038280;28;20355;-90
2023/11/02 04:07:48;;;;;;;36.30;34.10;;;9.10;91.30;;;;;;5038338;28;20188;-91
2023/11/02 04:10:14;;;;;;;36.53;34.23;;;9.10;91.20;;;;;;5038259;28;20218;-90
2023/11/02 04:13:18;;;;;;;36.13;33.73;;;9.20;91.20;;;;;;5038156;28;20177;-91
2023/11/02 04:15:43;;;;;;;35.47;33.17;;;9.10;91.10;;;;;;5037996;28;20242;-90
2023/11/02 04:18:09;;;;;;;36.60;34.30;;;9.10;91.10;;;;;;5038111;28;20208;-90
2023/11/02 04:20:36;;;;;;;39.20;36.40;;;9.10;91.00;;;;;;5038003;28;20258;-91
2023/11/02 04:23:02;;;;;;;35.93;33.43;;;9.10;91.00;;;;;;5037957;28;20719;-90
2023/11/02 04:25:27;;;;;;;36.10;33.53;;;9.00;91.00;;;;;;5037634;28;20288;-91
2023/11/02 04:27:53;;;;;;;35.27;32.77;;;9.00;90.90;;;;;;5055568;28;20258;-90
2023/11/02 04:30:19;;;;;;;35.33;32.90;;;9.00;90.90;;;;;;5037836;28;20258;-90
2023/11/02 04:32:45;;;;;;;35.50;33.10;;;9.00;91.00;;;;;;5037721;28;20583;-90
2023/11/02 04:35:11;;;;;;;35.43;33.13;;;9.00;90.90;;;;;;5037594;28;20219;-90
2023/11/02 04:37:37;;;;;;;38.23;35.63;;;9.10;90.80;;;;;;5037548;28;20643;-90
2023/11/02 04:40:03;;;;;;;40.10;37.30;;;9.10;90.70;;;;;;5055486;28;20179;-90
2023/11/02 04:42:29;;;;;;;41.17;38.27;;;9.00;90.60;;;;;;5055637;28;20642;-90
2023/11/02 04:44:55;;;;;;;39.63;37.07;;;9.00;90.60;;;;;;5037123;28;20243;-91
2023/11/02 04:47:20;;;;;;;38.37;35.87;;;9.00;90.60;;;;;;5037503;28;20185;-91
2023/11/02 04:49:46;;;;;;;39.07;36.47;;;9.00;90.70;;;;;;5037732;28;20184;-91
2023/11/02 04:52:11;;;;;;;38.10;35.40;;;9.10;90.70;;;;;;5055382;28;20614;-91
2023/11/02 04:54:37;;;;;;;39.30;36.50;;;9.00;90.60;;;;;;5037657;28;20200;-90
2023/11/02 04:57:03;;;;;;;40.63;37.73;;;9.10;90.70;;;;;;5055334;28;20131;-90
2023/11/02 04:59:35;;;;;;;40.73;37.87;;;9.10;90.60;;;;;;5037418;28;20186;-90
2023/11/02 05:02:02;;;;;;;38.90;36.10;;;9.10;90.50;;;;;;5037679;28;20160;-90
2023/11/02 05:04:27;;;;;;;59.53;55.60;;;9.10;90.60;;;;;;5054983;28;20524;-91
2023/11/02 05:06:53;;;;;;;60.57;56.77;;;9.10;90.60;;;;;;5036567;28;20241;-90
2023/11/02 05:09:18;;;;;;;63.80;59.70;;;9.10;90.60;;;;;;5037082;28;20187;-90
2023/11/02 05:11:46;;;;;;;38.97;36.13;;;9.10;90.50;;;;;;5054865;28;20176;-90
2023/11/02 05:14:11;;;;;;;38.13;35.73;;;9.10;90.70;;;;;;5036929;28;20195;-90
2023/11/02 05:16:37;;;;;;;55.00;51.60;;;9.10;90.70;;;;;;5036865;28;20188;-90
2023/11/02 05:19:02;;;;;;;56.33;52.53;;;9.10;90.60;;;;;;5036881;28;20176;-90
2023/11/02 05:21:28;;;;;;;67.63;63.23;;;9.20;90.60;;;;;;5054645;28;20168;-89
2023/11/02 05:23:53;;;;;;;40.43;37.70;;;9.10;90.60;;;;;;5054624;28;20180;-91
2023/11/02 05:26:20;;;;;;;41.50;38.57;;;9.10;90.60;;;;;;5036521;28;20223;-91
2023/11/02 05:28:45;;;;;;;62.13;58.13;;;9.10;90.60;;;;;;5036602;28;20182;-91
2023/11/02 05:31:11;;;;;;;64.93;60.93;;;9.10;90.60;;;;;;5036769;28;20180;-91
2023/11/02 05:33:37;;;;;;;66.53;62.13;;;9.10;90.60;;;;;;5036757;28;20204;-91
2023/11/02 05:36:02;;;;;;;41.27;38.57;;;9.20;90.60;;;;;;5036396;28;20546;-90
2023/11/02 05:38:29;;;;;;;41.50;38.70;;;9.10;90.50;;;;;;5036448;28;20172;-90
2023/11/02 05:40:54;;;;;;;;;;;9.10;90.60;;;;;;5036692;28;20663;-91
2023/11/02 05:43:20;;;;;;;59.83;56.03;;;9.10;90.70;;;;;;5054551;28;20040;-91
2023/11/02 05:45:45;;;;;;;64.70;60.30;;;9.10;90.70;;;;;;5036352;28;20195;-90
2023/11/02 05:48:11;;;;;;;37.70;35.40;;;9.10;90.60;;;;;;5036284;28;20222;-91
2023/11/02 05:50:36;;;;;;;36.50;34.30;;;9.20;90.50;;;;;;5054083;28;20182;-92
2023/11/02 05:53:02;;;;;;;;;;;9.20;90.50;;;;;;5036623;28;20168;-90
2023/11/02 05:55:27;;;;;;;56.90;53.20;;;9.20;90.50;;;;;;5036037;28;20175;-90
2023/11/02 05:57:53;;;;;;;60.97;57.07;;;9.20;90.50;;;;;;5036195;28;20222;-90
2023/11/02 06:00:19;;;;;;;33.33;31.03;;;9.20;90.40;;;;;;5036203;28;20176;-91
2023/11/02 06:02:44;;;;;;;34.33;31.83;;;9.20;90.40;;;;;;5054029;28;20640;-90
2023/11/02 06:05:10;;;;;;;34.10;32.00;;;9.20;90.30;;;;;;5036082;28;20290;-90
2023/11/02 06:07:36;;;;;;;33.30;30.97;;;9.30;90.30;;;;;;5036058;28;20183;-91
2023/11/02 06:10:03;;;;;;;33.53;31.43;;;9.30;90.20;;;;;;5036326;28;20178;-90
2023/11/02 06:12:29;;;;;;;33.80;31.30;;;9.30;90.10;;;;;;5035909;28;20172;-90
2023/11/02 06:14:55;;;;;;;33.63;31.03;;;9.30;90.10;;;;;;5035727;28;20577;-90
2023/11/02 06:17:21;;;;;;;34.00;31.80;;;9.30;90.10;;;;;;5035801;28;20172;-90
2023/11/02 06:19:46;;;;;;;32.70;30.37;;;9.30;90.20;;;;;;5035289;28;20689;-90
2023/11/02 06:22:12;;;;;;;34.00;31.50;;;9.30;90.30;;;;;;5053523;28;20659;-91
2023/11/02 06:24:39;;;;;;;32.60;30.20;;;9.30;90.20;;;;;;5035559;28;20176;-91
2023/11/02 06:27:05;;;;;;;33.80;31.13;;;9.40;90.10;;;;;;5035508;28;20195;-91
2023/11/02 06:29:31;;;;;;;33.30;31.10;;;9.40;90.10;;;;;;5053739;28;20172;-90
2023/11/02 06:31:56;;;;;;;32.90;30.63;;;9.40;90.00;;;;;;5035657;28;20208;-91
2023/11/02 06:34:22;;;;;;;32.77;30.67;;;9.50;89.90;;;;;;5035646;28;20555;-91
2023/11/02 06:36:47;;;;;;;32.67;30.37;;;9.50;89.90;;;;;;5056823;28;20192;-91
2023/11/02 06:39:19;;;;;;;31.17;29.17;;;9.50;89.90;;;;;;5035582;28;20172;-90
2023/11/02 06:41:45;;;;;;;33.87;31.33;;;9.50;89.80;;;;;;5036358;28;20651;-90
2023/11/02 06:44:11;;;;;;;33.53;31.20;;;9.50;89.90;;;;;;5035330;28;20180;-90
2023/11/02 06:46:36;;;;;;;31.33;29.40;;;9.50;89.80;;;;;;5035369;28;20210;-90
2023/11/02 06:49:02;;;;;;;31.37;29.30;;;9.50;89.80;;;;;;5035457;28;20178;-90
2023/11/02 06:51:27;;;;;;;30.30;28.10;;;9.50;89.70;;;;;;5035509;28;20184;-91
2023/11/02 06:53:53;;;;;;;29.33;27.30;;;9.60;89.60;;;;;;5053197;28;20202;-91
2023/11/02 06:56:19;;;;;;;28.97;26.87;;;9.70;89.40;;;;;;5035437;28;20192;-90
2023/11/02 06:58:45;;;;;;;29.53;27.67;;;9.70;89.30;;;;;;5035229;28;20210;-91
2023/11/02 07:01:10;;;;;;;30.77;28.23;;;9.70;89.10;;;;;;5053435;28;20226;-91
2023/11/02 07:03:36;;;;;;;29.40;26.60;;;9.70;89.10;;;;;;5035466;28;20241;-91
2023/11/02 07:06:02;;;;;;;26.90;24.97;;;9.80;88.90;;;;;;5053247;28;20273;-90
2023/11/02 07:08:29;;;;;;;28.97;26.63;;;9.80;88.70;;;;;;5035322;28;20535;-90
2023/11/02 07:10:54;;;;;;;27.03;25.17;;;9.80;88.50;;;;;;5035181;28;20176;-91
2023/11/02 07:13:20;;;;;;;27.77;25.03;;;9.80;88.40;;;;;;5035257;28;20199;-90
2023/11/02 07:15:45;;;;;;;26.13;24.33;;;9.80;88.30;;;;;;5034971;28;20215;-90
2023/11/02 07:18:11;;;;;;;27.40;25.67;;;9.90;88.10;;;;;;5035409;28;20168;-90
2023/11/02 07:20:36;;;;;;;26.90;25.20;;;9.90;88.10;;;;;;5035076;28;20550;-89
2023/11/02 07:23:02;;;;;;;26.10;24.47;;;9.90;88.00;;;;;;5052824;28;20640;-91
2023/11/02 07:25:27;;;;;;;26.30;24.23;;;9.90;87.80;;;;;;5052664;28;20184;-91
2023/11/02 07:27:53;;;;;;;26.87;24.67;;;10.00;87.60;;;;;;5035067;28;20183;-90
2023/11/02 07:30:18;;;;;;;27.17;25.37;;;10.00;87.60;;;;;;5037285;28;20172;-91
2023/11/02 07:32:44;;;;;;;27.37;25.60;;;10.00;87.50;;;;;;5056848;28;20172;-89
2023/11/02 07:35:10;;;;;;;27.20;25.07;;;10.00;87.50;;;;;;5039355;28;20295;-91
2023/11/02 07:37:35;;;;;;;27.33;25.43;;;10.00;87.40;;;;;;5039428;28;20180;-89
2023/11/02 07:40:01;;;;;;;26.63;24.90;;;10.00;87.30;;;;;;5057180;28;20169;-90
2023/11/02 07:42:27;;;;;;;25.90;24.10;;;10.10;87.20;;;;;;5056839;28;20168;-90
2023/11/02 07:44:53;;;;;;;24.30;22.40;;;10.00;87.10;;;;;;5056745;28;20249;-91
2023/11/02 07:47:18;;;;;;;25.90;23.77;;;10.10;87.00;;;;;;5056828;28;20321;-90
2023/11/02 07:49:44;;;;;;;23.73;21.93;;;10.10;86.90;;;;;;5039682;28;20180;-92
2023/11/02 07:52:10;;;;;;;23.77;22.10;;;10.10;86.80;;;;;;5039371;28;20196;-88
2023/11/02 07:54:36;;;;;;;25.33;23.83;;;10.10;86.80;;;;;;5056569;28;20618;-89
2023/11/02 07:57:07;;;;;;;26.80;24.80;;;10.20;86.80;;;;;;5039278;28;20168;-90
2023/11/02 07:59:34;;;;;;;25.57;23.77;;;10.20;86.90;;;;;;5057129;28;20152;-89
2023/11/02 08:01:59;;;;;;;24.20;22.47;;;10.30;86.90;;;;;;5057120;28;20168;-91
2023/11/02 08:04:25;;;;;;;23.40;21.80;;;10.30;87.00;;;;;;5038794;28;20198;-91
2023/11/02 08:06:50;;;;;;;24.77;23.13;;;10.30;86.80;;;;;;5056398;28;20199;-90
2023/11/02 08:09:16;;;;;;;23.80;22.17;;;10.30;86.80;;;;;;5038284;28;20180;-92
2023/11/02 08:11:41;;;;;;;24.53;22.83;;;10.30;86.80;;;;;;5056269;28;20274;-90
2023/11/02 08:14:07;;;;;;;23.40;21.90;;;10.20;86.80;;;;;;5038539;28;20578;-91
2023/11/02 08:16:33;;;;;;;23.23;21.53;;;10.20;86.90;;;;;;5038320;28;20188;-91
2023/11/02 08:18:59;;;;;;;37.03;34.60;;;10.30;86.70;;;;;;5038460;28;20180;-91
2023/11/02 08:21:24;;;;;;;36.20;33.90;;;10.30;86.70;;;;;;5038280;28;20172;-91
2023/11/02 08:23:50;;;;;;;37.53;35.03;;;10.30;86.50;;;;;;5038157;28;20176;-91
2023/11/02 08:26:15;;;;;;;26.73;24.40;;;10.30;86.50;;;;;;5038263;28;20211;-90
2023/11/02 08:28:41;;;;;;;23.97;21.70;;;10.30;86.40;;;;;;5056126;28;20176;-91
2023/11/02 08:31:06;;;;;;;23.77;22.17;;;10.30;86.30;;;;;;5039807;28;20176;-92
2023/11/02 08:33:32;;;;;;;37.87;35.03;;;10.40;86.20;;;;;;5040304;28;20199;-90
2023/11/02 08:35:58;;;;;;;37.87;35.17;;;10.40;86.20;;;;;;5038725;28;20188;-91
2023/11/02 08:38:24;;;;;;;23.70;21.90;;;10.40;86.40;;;;;;5038563;28;20251;-90
2023/11/02 08:40:50;;;;;;;24.97;23.27;;;10.40;86.10;;;;;;5056058;28;20175;-91
2023/11/02 08:43:15;;;;;;;40.60;38.00;;;10.50;86.20;;;;;;5037896;28;20180;-91
2023/11/02 08:45:41;;;;;;;37.33;34.73;;;10.50;86.30;;;;;;5038875;28;20188;-92
2023/11/02 08:48:07;;;;;;;22.93;21.43;;;10.50;86.20;;;;;;5038188;28;20263;-88
2023/11/02 08:50:32;;;;;;;23.43;21.63;;;10.60;85.80;;;;;;5038145;28;20262;-91
2023/11/02 08:52:58;;;;;;;33.53;31.30;;;10.60;85.70;;;;;;5038116;28;20180;-91
2023/11/02 08:55:23;;;;;;;34.70;32.40;;;10.70;85.50;;;;;;5038239;28;20188;-91
2023/11/02 08:57:49;;;;;;;36.37;33.77;;;10.60;85.60;;;;;;5055962;28;20179;-91
2023/11/02 09:00:16;;;;;;;22.77;20.93;;;10.60;85.60;;;;;;5038586;28;20267;-90
2023/11/02 09:02:41;;;;;;;24.10;22.50;;;10.70;85.50;;;;;;5057283;28;20210;-91
2023/11/02 09:05:07;;;;;;;36.80;34.50;;;10.70;85.40;;;;;;5037951;28;20200;-92
2023/11/02 09:07:33;;;;;;;36.07;33.40;;;10.70;85.30;;;;;;5037684;28;20187;-92
2023/11/02 09:09:58;;;;;;;23.70;21.80;;;10.70;85.10;;;;;;5037700;28;20172;-90
2023/11/02 09:12:24;;;;;;;24.10;22.30;;;10.70;85.10;;;;;;5037591;28;20321;-91
2023/11/02 09:14:49;;;;;;;32.07;30.00;;;10.70;85.30;;;;;;5037484;28;20204;-91
2023/11/02 09:17:15;;;;;;;34.25;31.55;;;10.80;85.00;;;;;;5057957;28;20172;-92
2023/11/02 09:19:43;;;;;;;23.07;21.37;;;10.80;84.90;;;;;;5039847;28;20180;-92
2023/11/02 09:22:10;;;;;;;23.57;21.90;;;10.80;84.80;;;;;;5058849;28;20168;-92
2023/11/02 09:24:36;;;;;;;28.83;26.67;;;10.80;85.00;;;;;;5041305;28;20211;-92
2023/11/02 09:27:02;;;;;;;31.93;29.40;;;10.80;84.50;;;;;;5046377;28;20199;-91
2023/11/02 09:29:28;;;;;;;22.40;20.50;;;10.90;84.40;;;;;;5038060;28;20179;-92
2023/11/02 09:31:53;;;;;;;21.93;20.43;;;10.90;84.40;;;;;;5055655;28;20223;-91
2023/11/02 09:34:19;;;;;;;21.93;20.00;;;11.00;84.10;;;;;;5055188;28;20199;-92
2023/11/02 09:36:44;;;;;;;32.67;30.27;;;11.00;84.00;;;;;;5036914;28;20620;-92
2023/11/02 09:39:10;;;;;;;32.53;30.10;;;11.00;83.70;;;;;;5041385;28;20171;-91
2023/11/02 09:41:36;;;;;;;33.43;31.13;;;11.00;83.70;;;;;;5055666;28;20222;-91
2023/11/02 09:44:04;;;;;;;35.40;33.10;;;11.00;83.30;;;;;;5055626;28;20258;-92
2023/11/02 09:46:30;;;;;;;22.63;20.83;;;11.10;83.20;;;;;;5036932;28;20200;-91
2023/11/02 09:48:55;;;;;;;21.50;19.80;;;11.10;83.20;;;;;;5055279;28;20648;-92
2023/11/02 09:51:23;;;;;;;32.73;30.63;;;11.10;82.90;;;;;;5037800;28;20222;-91
2023/11/02 09:53:48;;;;;;;36.10;33.60;;;11.20;82.80;;;;;;5036941;28;20200;-90
2023/11/02 09:56:14;;;;;;;21.90;20.23;;;11.20;82.80;;;;;;5036947;28;20214;-92
2023/11/02 09:58:41;;;;;;;22.00;20.40;;;11.20;82.90;;;;;;5036687;28;20640;-91
2023/11/02 10:01:08;;;;;;;21.97;20.37;;;11.20;82.60;;;;;;5036783;28;20195;-91
2023/11/02 10:03:35;;;;;;;35.10;32.80;;;11.20;82.80;;;;;;5036825;28;20172;-91
2023/11/02 10:06:03;;;;;;;37.93;35.33;;;11.30;82.10;;;;;;5037013;28;20199;-91
2023/11/02 10:08:28;;;;;;;22.03;20.40;;;11.30;81.90;;;;;;5036363;28;20187;-91
2023/11/02 10:11:10;;;;;;;21.43;19.60;;;11.30;82.10;;;;;;5036141;28;20596;-91
2023/11/02 10:13:35;;;;;;;21.57;19.87;;;11.30;81.70;;;;;;5036362;28;20208;-90
2023/11/02 10:16:01;;;;;;;21.67;19.90;;;11.30;81.60;;;;;;5036518;28;20199;-90
2023/11/02 10:18:26;;;;;;;21.87;20.20;;;11.40;81.60;;;;;;5054220;28;20182;-88
2023/11/02 10:20:52;;;;;;;21.50;20.00;;;11.40;81.20;;;;;;5037449;28;20171;-90
2023/11/02 10:23:17;;;;;;;26.07;24.17;;;11.50;81.10;;;;;;5053836;28;20175;-92
2023/11/02 10:25:43;;;;;;;23.43;21.83;;;11.40;81.30;;;;;;5035869;28;20278;-90
2023/11/02 10:28:13;;;;;;;25.47;23.00;;;11.40;81.30;;;;;;5036720;28;20202;-91
2023/11/02 10:30:38;;;;;;;23.23;21.40;;;11.40;81.20;;;;;;5035827;28;20176;-90
2023/11/02 10:33:06;;;;;;;22.47;20.80;;;11.40;81.40;;;;;;5053744;28;20259;-89
2023/11/02 10:35:31;;;;;;;23.33;21.23;;;11.40;80.90;;;;;;5035750;28;20196;-91
2023/11/02 10:37:59;;;;;;;23.93;21.63;;;11.50;80.80;;;;;;5053579;28;20655;-91
2023/11/02 10:40:40;;;;;;;22.47;20.77;;;11.60;80.90;;;;;;5053693;28;20171;-90
2023/11/02 10:43:13;;;;;;;22.47;20.93;;;11.50;80.80;;;;;;5053777;28;20163;-90
2023/11/02 10:45:39;;;;;;;22.90;20.93;;;11.50;81.20;;;;;;5035360;28;20188;-92
2023/11/02 10:48:05;;;;;;;22.67;20.93;;;11.60;80.80;;;;;;5035389;28;20763;-91
2023/11/02 10:50:31;;;;;;;21.20;19.67;;;11.60;80.30;;;;;;5035584;28;20551;-90
2023/11/02 10:52:59;;;;;;;26.17;24.17;;;11.70;80.30;;;;;;5035730;28;20172;-90
2023/11/02 10:55:35;;;;;;;22.17;20.37;;;11.70;80.60;;;;;;5053190;28;20203;-90
2023/11/02 10:58:02;;;;;;;22.00;19.97;;;11.70;80.20;;;;;;5053153;28;20152;-90
2023/11/02 11:00:29;;;;;;;21.37;19.87;;;11.70;80.10;;;;;;5053343;28;20195;-91
2023/11/02 11:02:56;;;;;;;21.53;19.30;;;11.80;79.50;;;;;;5053279;28;20172;-91
2023/11/02 11:05:22;;;;;;;22.53;20.83;;;11.80;79.70;;;;;;5037500;28;20195;-90
2023/11/02 11:07:55;;;;;;;21.23;19.73;;;11.90;79.70;;;;;;5057131;28;20176;-91
2023/11/02 11:10:21;;;;;;;21.10;19.53;;;11.90;79.90;;;;;;5039413;28;20174;-90
2023/11/02 11:12:47;;;;;;;21.50;19.97;;;12.20;78.70;;;;;;5057452;28;20612;-89
2023/11/02 11:15:13;;;;;;;20.70;19.30;;;12.20;78.50;;;;;;5057398;28;20282;-90
2023/11/02 11:17:44;;;;;;;22.17;20.50;;;12.20;78.10;;;;;;5057148;28;20260;-90
2023/11/02 11:20:16;;;;;;;21.60;20.10;;;12.20;78.10;;;;;;5057228;28;20175;-91
2023/11/02 11:22:43;;;;;;;21.83;20.23;;;12.20;78.40;;;;;;5057469;28;20214;-91
2023/11/02 11:25:09;;;;;;;20.70;19.30;;;12.20;78.20;;;;;;5039204;28;20242;-91
2023/11/02 11:27:36;;;;;;;21.60;19.90;;;12.30;78.30;;;;;;5039116;28;20196;-91
2023/11/02 11:30:04;;;;;;;21.77;19.77;;;12.30;78.20;;;;;;5038959;28;20255;-90
2023/11/02 11:32:38;;;;;;;21.27;19.83;;;12.30;77.80;;;;;;5038968;28;20184;-91
2023/11/02 11:35:05;;;;;;;22.20;20.50;;;12.30;78.00;;;;;;5057240;28;20206;-91
2023/11/02 11:37:42;;;;;;;21.30;19.70;;;12.30;77.70;;;;;;5038945;28;20258;-91
2023/11/02 11:40:31;;;;;;;21.77;19.70;;;12.30;77.90;;;;;;5039061;28;20167;-92
2023/11/02 11:43:12;;;;;;;20.63;19.23;;;12.30;77.90;;;;;;5044761;28;20263;-91
2023/11/02 11:45:48;;;;;;;21.43;19.87;;;12.50;77.20;;;;;;5038880;28;20577;-91
2023/11/02 11:48:42;;;;;;;21.53;19.87;;;12.50;77.40;;;;;;5039321;28;20171;-91
2023/11/02 11:51:39;;;;;;;22.10;20.40;;;12.70;77.10;;;;;;5038801;28;20203;-91
2023/11/02 11:54:15;;;;;;;27.33;24.83;;;12.70;77.20;;;;;;5038548;28;20220;-91
2023/11/02 11:56:42;;;;;;;21.17;19.67;;;12.70;77.50;;;;;;5056796;28;20184;-92
2023/11/02 11:59:09;;;;;;;21.23;19.30;;;12.70;77.60;;;;;;5039183;28;20690;-90
2023/11/02 12:01:35;;;;;;;21.60;20.10;;;12.70;76.90;;;;;;5038665;28;20176;-92
2023/11/02 12:04:02;;;;;;;20.67;18.77;;;12.70;77.70;;;;;;5039222;28;20210;-91
2023/11/02 12:06:39;;;;;;;20.40;19.00;;;12.80;77.60;;;;;;5038571;28;20196;-91
2023/11/02 12:09:12;;;;;;;23.10;19.10;;;13.20;77.40;;;;;;5038386;28;20172;-91
2023/11/02 12:11:39;;;;;;;20.50;18.90;;;13.20;77.20;;;;;;5056265;28;20159;-92
2023/11/02 12:14:14;;;;;;;20.60;19.20;;;13.20;76.50;;;;;;5039091;28;20283;-93
2023/11/02 12:16:41;;;;;;;20.73;18.93;;;13.20;76.20;;;;;;5037186;28;20349;-91
2023/11/02 12:19:07;;;;;;;21.63;19.67;;;13.10;76.30;;;;;;5037949;28;20552;-91
2023/11/02 12:21:33;;;;;;;21.13;19.60;;;13.10;76.20;;;;;;5038256;28;20206;-91
2023/11/02 12:23:59;;;;;;;23.20;20.60;;;13.10;75.70;;;;;;5038138;28;20621;-91
2023/11/02 12:26:27;;;;;;;21.30;19.80;;;13.10;76.40;;;;;;5037966;28;20301;-91
2023/11/02 12:28:58;;;;;;;21.97;20.37;;;13.20;76.60;;;;;;5055865;28;20658;-92
2023/11/02 12:31:42;;;;;;;21.17;19.77;;;13.20;76.30;;;;;;5038206;28;20172;-91
2023/11/02 12:34:11;;;;;;;21.60;20.10;;;13.10;77.10;;;;;;5039635;28;20288;-92
2023/11/02 12:36:41;;;;;;;33.90;31.67;;;13.10;77.20;;;;;;5038518;28;20672;-90
2023/11/02 12:39:15;;;;;;;33.10;30.73;;;13.10;76.70;;;;;;5037729;28;20251;-90
2023/11/02 12:41:42;;;;;;;21.67;20.00;;;13.20;76.60;;;;;;5037607;28;20168;-91
2023/11/02 12:44:12;;;;;;;21.87;20.00;;;13.20;76.60;;;;;;5037605;28;20176;-90
2023/11/02 12:46:43;;;;;;;20.67;19.30;;;13.20;76.80;;;;;;5037490;28;20226;-91
2023/11/02 12:49:25;;;;;;;33.63;31.43;;;13.10;77.20;;;;;;5037572;28;20195;-90